aviador You're here:

FBMN Decoded Metar

MAUN in BOTSWANA
Report Time2018-02-20 03:00:00
UTC Time2018-02-20 03:40:41
Flight Rules vfr VFR
Wind120° at 04 kt
W.Decomp.*RWY 08: 2.6 kt HW 3.1 kt RCW
W.Rank120° ranks 2
Current wind is below 120° avg. (7.3)
Visibility9999 m
Phenomena:N/A
Clouds:N/A
Expected CloudBase > 800 ft AGL from Temp-Dew spread
CeilingNone
Temp21°C (ISA +12)
Dew Point19°C (88% RH)
QNH1014 hPa
Density Alt4,603 ft
Elevation2,953 ft
Report Wrong Elevation
Raw Report
METAR FBMN 200300Z 12004KT CAVOK 21/19 Q1014=

Extra information for FBMN:More info

Metar Taf Metar & Taf Last 4 Metars F.Rules Stats Wind Profile Meteogram Temp Stats Airport Information Weather charts Add Link Nearby VenuesMetar ALERT Operation Metar Decoded Social comments